Ilyas Efendiyev — 9HES8 — position and weather

sailwx.info

Track history (hours):
 
Tides and Currents Weather Stations Pressure Air Temp Water Temp Dewpoint Dewpoint Depression Visibility Wind Speed Wind Dir Waves Ship Positions

Ilyas Efendiyev

Last reported at 2015-Feb-27 16:07 UTC. Time now 2015-Feb-28 17:34 UTC.
Position N 38°38' E 008°40'.

Length 140 m; draft 4.8 m.

Type: Cargo ship. MMSI: 215901000.

Date/timePositionNaut miles runAvg speedWind from/ knotsBaromVisibWave heightAir tempDewpointWater temp
2015-Feb-27 16:07N 38°38' E 008°40'240 7.1
2015-Feb-26 06:14N 38°48' E 003°33'4 5.1
2015-Feb-26 05:29N 38°48' E 003°28'5 5.5
2015-Feb-26 04:32N 38°48' E 003°21'7 6.7
2015-Feb-26 03:33N 38°49' E 003°13'8 7.3
2015-Feb-26 02:29N 38°49' E 003°03'7 7.2
2015-Feb-26 01:33N 38°49' E 002°54'7 7.1
2015-Feb-26 00:33N 38°50' E 002°45'7 7.2
2015-Feb-25 23:32N 38°50' E 002°36'7 6.8
2015-Feb-25 22:33N 38°50' E 002°27'7 7.2
2015-Feb-25 21:33N 38°50' E 002°18'8 7.7
2015-Feb-25 20:33N 38°51' E 002°08'8 8.0
2015-Feb-25 19:32N 38°51' E 001°57'8 7.9
2015-Feb-25 18:33N 38°51' E 001°48'8 8.0
2015-Feb-25 17:32N 38°51' E 001°37'7 3.0
2015-Feb-25 15:08N 38°52' E 001°28'0 0.0
2015-Feb-24 17:24N 38°52' E 001°28'0 0.0
2015-Feb-24 16:30N 38°52' E 001°28'100 4.5
2015-Feb-23 18:22N 37°40' W 000°00'7 8.8
2015-Feb-23 17:33N 37°36' W 000°08'9 8.9
2015-Feb-23 16:33N 37°30' W 000°17'9 8.5
2015-Feb-23 15:33N 37°25' W 000°25'9 8.8
2015-Feb-23 14:31N 37°19' W 000°34'9 8.9
2015-Feb-23 13:32N 37°14' W 000°43'10 8.6
2015-Feb-23 12:20N 37°08' W 000°53'221 8.1
2015-Feb-22 09:03N 35°56' W 005°14'4 8.8
2015-Feb-22 08:33N 35°54' W 005°18'1 0.6
2015-Feb-22 07:32N 35°54' W 005°19'0 0.0
2015-Feb-22 06:32N 35°54' W 005°19'0 0.0
2015-Feb-22 05:32N 35°54' W 005°19'0 0.0
2015-Feb-22 04:33N 35°54' W 005°19'0 0.3
2015-Feb-22 03:34N 35°54' W 005°19'5 5.1
2015-Feb-22 02:33N 35°57' W 005°23'231 7.5
2015-Feb-20 19:30N 37°34' W 009°46'8 8.6
2015-Feb-20 18:33N 37°42' W 009°49'18 8.7
2015-Feb-20 16:28N 37°60' W 009°53'8 8.6
2015-Feb-20 15:33N 38°07' W 009°55'18 8.7
2015-Feb-20 13:30N 38°25' W 010°01'10 9.0
2015-Feb-20 12:26N 38°34' W 010°03'  
Track history (hours):
 
Tides and Currents Weather Stations Pressure Air Temp Water Temp Dewpoint Dewpoint Depression Visibility Wind Speed Wind Dir Waves Ship Positions

Ilyas Efendiyev

Last reported at 2015-Feb-27 16:07 UTC. Time now 2015-Feb-28 17:34 UTC.
Position N 38°38' E 008°40'.

Length 140 m; draft 4.8 m.

Type: Cargo ship. MMSI: 215901000.

Date/timePositionNaut miles runAvg speedWind from/ knotsBaromVisibWave heightAir tempDewpointWater temp
2015-Feb-27 16:07N 38°38' E 008°40'240 7.1
2015-Feb-26 06:14N 38°48' E 003°33'4 5.1
2015-Feb-26 05:29N 38°48' E 003°28'5 5.5
2015-Feb-26 04:32N 38°48' E 003°21'7 6.7
2015-Feb-26 03:33N 38°49' E 003°13'8 7.3
2015-Feb-26 02:29N 38°49' E 003°03'7 7.2
2015-Feb-26 01:33N 38°49' E 002°54'7 7.1
2015-Feb-26 00:33N 38°50' E 002°45'7 7.2
2015-Feb-25 23:32N 38°50' E 002°36'7 6.8
2015-Feb-25 22:33N 38°50' E 002°27'7 7.2
2015-Feb-25 21:33N 38°50' E 002°18'8 7.7
2015-Feb-25 20:33N 38°51' E 002°08'8 8.0
2015-Feb-25 19:32N 38°51' E 001°57'8 7.9
2015-Feb-25 18:33N 38°51' E 001°48'8 8.0
2015-Feb-25 17:32N 38°51' E 001°37'7 3.0
2015-Feb-25 15:08N 38°52' E 001°28'0 0.0
2015-Feb-24 17:24N 38°52' E 001°28'0 0.0
2015-Feb-24 16:30N 38°52' E 001°28'100 4.5
2015-Feb-23 18:22N 37°40' W 000°00'7 8.8
2015-Feb-23 17:33N 37°36' W 000°08'9 8.9
2015-Feb-23 16:33N 37°30' W 000°17'9 8.5
2015-Feb-23 15:33N 37°25' W 000°25'9 8.8
2015-Feb-23 14:31N 37°19' W 000°34'9 8.9
2015-Feb-23 13:32N 37°14' W 000°43'10 8.6
2015-Feb-23 12:20N 37°08' W 000°53'221 8.1
2015-Feb-22 09:03N 35°56' W 005°14'4 8.8
2015-Feb-22 08:33N 35°54' W 005°18'1 0.6
2015-Feb-22 07:32N 35°54' W 005°19'0 0.0
2015-Feb-22 06:32N 35°54' W 005°19'0 0.0
2015-Feb-22 05:32N 35°54' W 005°19'0 0.0
2015-Feb-22 04:33N 35°54' W 005°19'0 0.3
2015-Feb-22 03:34N 35°54' W 005°19'5 5.1
2015-Feb-22 02:33N 35°57' W 005°23'231 7.5
2015-Feb-20 19:30N 37°34' W 009°46'8 8.6
2015-Feb-20 18:33N 37°42' W 009°49'18 8.7
2015-Feb-20 16:28N 37°60' W 009°53'8 8.6
2015-Feb-20 15:33N 38°07' W 009°55'18 8.7
2015-Feb-20 13:30N 38°25' W 010°01'10 9.0
2015-Feb-20 12:26N 38°34' W 010°03'  

Dump ship's entire track history